Zawiercie, Poland
Current Conditions -  °F | °C
As of 1:00 AM on Thursday 23 Oct 2014 (Local Time) from EPKT Reporting Station
Light Rain Light Rain  
Wind Chill: 40°   Ceiling: 200
Heat Index: 43°   Visibility: 4mi
Dew Point: 43°   Wind: 5mph
Humidity: 100%   Direction: 280°W
Pressure: 29.65"   Gusts: NA
Location:  50.49°N, 19.42°E
Report Text: EPKT 222300Z 28004KT 6000 -RA SCT001 BKN002 06/06 Q1004 RERA
Loading
Personal Weather Stations






























Interactive Weather Map
Tropical Storm Tracking
New forecast layout! Learn more

10-Day Weather Forecast

Advertisements
Track Severe Weather on mobile